sensor_id;sensor_type;location;lat;lon;timestamp;temperature;humidity
25937;DHT22;13733;51.178;4.450;2023-03-23T00:00:43;13.60;99.90
25937;DHT22;13733;51.178;4.450;2023-03-23T00:03:09;13.80;99.90
25937;DHT22;13733;51.178;4.450;2023-03-23T00:05:35;13.90;99.90
25937;DHT22;13733;51.178;4.450;2023-03-23T00:08:03;13.90;99.90
25937;DHT22;13733;51.178;4.450;2023-03-23T00:10:29;14.00;99.90
25937;DHT22;13733;51.178;4.450;2023-03-23T00:12:58;13.90;99.90
25937;DHT22;13733;51.178;4.450;2023-03-23T00:15:28;13.80;99.90
25937;DHT22;13733;51.178;4.450;2023-03-23T00:18:01;13.70;99.90
25937;DHT22;13733;51.178;4.450;2023-03-23T00:20:30;13.70;99.90
25937;DHT22;13733;51.178;4.450;2023-03-23T00:23:06;13.60;99.90
25937;DHT22;13733;51.178;4.450;2023-03-23T00:25:32;13.50;99.90
25937;DHT22;13733;51.178;4.450;2023-03-23T00:27:58;13.50;99.90
25937;DHT22;13733;51.178;4.450;2023-03-23T00:30:24;13.50;99.90
25937;DHT22;13733;51.178;4.450;2023-03-23T00:32:49;13.30;99.90
25937;DHT22;13733;51.178;4.450;2023-03-23T00:35:16;13.40;99.90
25937;DHT22;13733;51.178;4.450;2023-03-23T00:37:43;13.60;99.90
25937;DHT22;13733;51.178;4.450;2023-03-23T00:40:12;13.60;99.90
25937;DHT22;13733;51.178;4.450;2023-03-23T00:42:38;13.50;99.90
25937;DHT22;13733;51.178;4.450;2023-03-23T00:45:04;13.40;99.90
25937;DHT22;13733;51.178;4.450;2023-03-23T00:47:37;13.50;99.90
25937;DHT22;13733;51.178;4.450;2023-03-23T00:50:04;13.60;99.90
25937;DHT22;13733;51.178;4.450;2023-03-23T00:52:31;13.70;99.90
25937;DHT22;13733;51.178;4.450;2023-03-23T00:54:56;13.80;99.90
25937;DHT22;13733;51.178;4.450;2023-03-23T00:57:24;13.80;99.90
25937;DHT22;13733;51.178;4.450;2023-03-23T00:59:53;13.80;99.90
25937;DHT22;13733;51.178;4.450;2023-03-23T01:02:19;13.70;99.90
25937;DHT22;13733;51.178;4.450;2023-03-23T01:04:45;13.70;99.90
25937;DHT22;13733;51.178;4.450;2023-03-23T01:07:11;13.50;99.90
25937;DHT22;13733;51.178;4.450;2023-03-23T01:09:39;13.60;99.90
25937;DHT22;13733;51.178;4.450;2023-03-23T01:12:06;13.60;99.90
25937;DHT22;13733;51.178;4.450;2023-03-23T01:14:32;13.50;99.90
25937;DHT22;13733;51.178;4.450;2023-03-23T01:16:57;13.60;99.90
25937;DHT22;13733;51.178;4.450;2023-03-23T01:19:23;13.60;99.90
25937;DHT22;13733;51.178;4.450;2023-03-23T01:21:49;13.60;99.90
25937;DHT22;13733;51.178;4.450;2023-03-23T01:24:15;13.70;99.90
25937;DHT22;13733;51.178;4.450;2023-03-23T01:26:40;13.80;99.90
25937;DHT22;13733;51.178;4.450;2023-03-23T01:29:06;13.80;99.90
25937;DHT22;13733;51.178;4.450;2023-03-23T01:31:33;13.80;99.90
25937;DHT22;13733;51.178;4.450;2023-03-23T01:34:02;13.70;99.90
25937;DHT22;13733;51.178;4.450;2023-03-23T01:36:30;13.70;99.90
25937;DHT22;13733;51.178;4.450;2023-03-23T01:39:01;13.70;99.90
25937;DHT22;13733;51.178;4.450;2023-03-23T01:41:30;13.70;99.90
25937;DHT22;13733;51.178;4.450;2023-03-23T01:44:08;13.60;99.90
25937;DHT22;13733;51.178;4.450;2023-03-23T01:46:59;13.60;99.90
25937;DHT22;13733;51.178;4.450;2023-03-23T01:49:29;13.90;99.90
25937;DHT22;13733;51.178;4.450;2023-03-23T01:52:03;13.80;99.90
25937;DHT22;13733;51.178;4.450;2023-03-23T01:54:30;13.80;99.90
25937;DHT22;13733;51.178;4.450;2023-03-23T01:57:01;13.80;99.90
25937;DHT22;13733;51.178;4.450;2023-03-23T01:59:29;13.80;99.90
25937;DHT22;13733;51.178;4.450;2023-03-23T02:02:15;13.80;99.90
25937;DHT22;13733;51.178;4.450;2023-03-23T02:04:42;13.80;99.90
25937;DHT22;13733;51.178;4.450;2023-03-23T02:07:08;13.80;99.90
25937;DHT22;13733;51.178;4.450;2023-03-23T02:09:35;13.80;99.90
25937;DHT22;13733;51.178;4.450;2023-03-23T02:12:01;13.80;99.90
25937;DHT22;13733;51.178;4.450;2023-03-23T02:14:28;13.60;99.90
25937;DHT22;13733;51.178;4.450;2023-03-23T02:17:17;13.70;99.90
25937;DHT22;13733;51.178;4.450;2023-03-23T02:34:16;13.60;99.90
25937;DHT22;13733;51.178;4.450;2023-03-23T02:36:49;13.50;99.90
25937;DHT22;13733;51.178;4.450;2023-03-23T02:39:29;13.60;99.90
25937;DHT22;13733;51.178;4.450;2023-03-23T02:42:07;13.60;99.90
25937;DHT22;13733;51.178;4.450;2023-03-23T02:44:36;13.70;99.90
25937;DHT22;13733;51.178;4.450;2023-03-23T02:47:07;13.70;99.90
25937;DHT22;13733;51.178;4.450;2023-03-23T02:49:36;13.70;99.90
25937;DHT22;13733;51.178;4.450;2023-03-23T02:52:07;13.60;99.90
25937;DHT22;13733;51.178;4.450;2023-03-23T02:54:33;13.60;99.90
25937;DHT22;13733;51.178;4.450;2023-03-23T02:56:59;13.50;99.90
25937;DHT22;13733;51.178;4.450;2023-03-23T02:59:29;13.50;99.90
25937;DHT22;13733;51.178;4.450;2023-03-23T03:02:01;13.60;99.90
25937;DHT22;13733;51.178;4.450;2023-03-23T03:04:30;13.50;99.90
25937;DHT22;13733;51.178;4.450;2023-03-23T03:09:58;13.50;99.90
25937;DHT22;13733;51.178;4.450;2023-03-23T03:15:36;13.50;99.90
25937;DHT22;13733;51.178;4.450;2023-03-23T03:18:23;13.60;99.90
25937;DHT22;13733;51.178;4.450;2023-03-23T03:20:56;13.60;99.90
25937;DHT22;13733;51.178;4.450;2023-03-23T03:23:25;13.60;99.90
25937;DHT22;13733;51.178;4.450;2023-03-23T03:25:55;13.60;99.90
25937;DHT22;13733;51.178;4.450;2023-03-23T03:28:32;13.50;99.90
25937;DHT22;13733;51.178;4.450;2023-03-23T03:31:02;13.50;99.90
25937;DHT22;13733;51.178;4.450;2023-03-23T03:33:30;13.40;99.90
25937;DHT22;13733;51.178;4.450;2023-03-23T03:36:02;13.50;99.90
25937;DHT22;13733;51.178;4.450;2023-03-23T03:38:28;13.50;99.90
25937;DHT22;13733;51.178;4.450;2023-03-23T03:40:56;13.50;99.90
25937;DHT22;13733;51.178;4.450;2023-03-23T03:43:23;13.60;99.90
25937;DHT22;13733;51.178;4.450;2023-03-23T03:45:48;13.50;99.90
25937;DHT22;13733;51.178;4.450;2023-03-23T03:48:14;13.60;99.90
25937;DHT22;13733;51.178;4.450;2023-03-23T03:50:40;13.60;99.90
25937;DHT22;13733;51.178;4.450;2023-03-23T03:53:06;13.60;99.90
25937;DHT22;13733;51.178;4.450;2023-03-23T03:55:32;13.70;99.90
25937;DHT22;13733;51.178;4.450;2023-03-23T03:58:04;13.80;99.90
25937;DHT22;13733;51.178;4.450;2023-03-23T04:00:53;13.80;99.90
25937;DHT22;13733;51.178;4.450;2023-03-23T04:03:25;13.70;99.90
25937;DHT22;13733;51.178;4.450;2023-03-23T04:06:04;13.60;99.90
25937;DHT22;13733;51.178;4.450;2023-03-23T04:08:30;13.60;99.90
25937;DHT22;13733;51.178;4.450;2023-03-23T04:10:56;13.70;99.90
25937;DHT22;13733;51.178;4.450;2023-03-23T04:13:23;13.60;99.90
25937;DHT22;13733;51.178;4.450;2023-03-23T04:16:07;13.50;99.90
25937;DHT22;13733;51.178;4.450;2023-03-23T04:18:34;13.40;99.90
25937;DHT22;13733;51.178;4.450;2023-03-23T04:21:01;13.30;99.90
25937;DHT22;13733;51.178;4.450;2023-03-23T04:23:29;13.30;99.90
25937;DHT22;13733;51.178;4.450;2023-03-23T04:25:56;13.50;99.90
25937;DHT22;13733;51.178;4.450;2023-03-23T04:28:32;13.40;99.90
25937;DHT22;13733;51.178;4.450;2023-03-23T04:31:17;13.20;99.90
25937;DHT22;13733;51.178;4.450;2023-03-23T04:33:47;13.10;99.90
25937;DHT22;13733;51.178;4.450;2023-03-23T04:36:14;12.90;99.90
25937;DHT22;13733;51.178;4.450;2023-03-23T04:38:50;12.80;99.90
25937;DHT22;13733;51.178;4.450;2023-03-23T04:41:22;12.70;99.90
25937;DHT22;13733;51.178;4.450;2023-03-23T04:44:01;12.80;99.90
25937;DHT22;13733;51.178;4.450;2023-03-23T04:46:34;12.80;99.90
25937;DHT22;13733;51.178;4.450;2023-03-23T04:49:06;12.90;99.90
25937;DHT22;13733;51.178;4.450;2023-03-23T04:51:35;12.80;99.90
25937;DHT22;13733;51.178;4.450;2023-03-23T04:54:12;12.80;99.90
25937;DHT22;13733;51.178;4.450;2023-03-23T04:56:40;12.80;99.90
25937;DHT22;13733;51.178;4.450;2023-03-23T04:59:11;12.80;99.90
25937;DHT22;13733;51.178;4.450;2023-03-23T05:01:49;12.90;99.90
25937;DHT22;13733;51.178;4.450;2023-03-23T05:04:17;12.90;99.90
25937;DHT22;13733;51.178;4.450;2023-03-23T05:06:57;12.90;99.90
25937;DHT22;13733;51.178;4.450;2023-03-23T05:09:26;12.90;99.90
25937;DHT22;13733;51.178;4.450;2023-03-23T05:11:53;13.00;99.90
25937;DHT22;13733;51.178;4.450;2023-03-23T05:14:20;13.00;99.90
25937;DHT22;13733;51.178;4.450;2023-03-23T05:16:57;13.10;99.90
25937;DHT22;13733;51.178;4.450;2023-03-23T05:19:25;13.00;99.90
25937;DHT22;13733;51.178;4.450;2023-03-23T05:21:52;13.00;99.90
25937;DHT22;13733;51.178;4.450;2023-03-23T05:24:19;13.20;99.90
25937;DHT22;13733;51.178;4.450;2023-03-23T05:26:46;13.30;99.90
25937;DHT22;13733;51.178;4.450;2023-03-23T05:29:17;13.20;99.90
25937;DHT22;13733;51.178;4.450;2023-03-23T05:31:54;13.10;99.90
25937;DHT22;13733;51.178;4.450;2023-03-23T05:34:21;13.10;99.90
25937;DHT22;13733;51.178;4.450;2023-03-23T05:36:52;12.90;99.90
25937;DHT22;13733;51.178;4.450;2023-03-23T05:39:37;13.10;99.90
25937;DHT22;13733;51.178;4.450;2023-03-23T05:42:22;13.00;99.90
25937;DHT22;13733;51.178;4.450;2023-03-23T05:45:04;13.00;99.90
25937;DHT22;13733;51.178;4.450;2023-03-23T05:47:30;13.10;99.90
25937;DHT22;13733;51.178;4.450;2023-03-23T05:50:04;13.10;99.90
25937;DHT22;13733;51.178;4.450;2023-03-23T05:52:33;12.90;99.90
25937;DHT22;13733;51.178;4.450;2023-03-23T05:55:02;12.80;99.90
25937;DHT22;13733;51.178;4.450;2023-03-23T05:57:30;12.60;99.90
25937;DHT22;13733;51.178;4.450;2023-03-23T06:00:04;12.60;99.90
25937;DHT22;13733;51.178;4.450;2023-03-23T06:02:42;12.60;99.90
25937;DHT22;13733;51.178;4.450;2023-03-23T06:05:13;12.50;99.90
25937;DHT22;13733;51.178;4.450;2023-03-23T06:07:43;12.20;99.90
25937;DHT22;13733;51.178;4.450;2023-03-23T06:10:09;12.10;99.90
25937;DHT22;13733;51.178;4.450;2023-03-23T06:12:40;12.00;99.90
25937;DHT22;13733;51.178;4.450;2023-03-23T06:15:25;11.80;99.90
25937;DHT22;13733;51.178;4.450;2023-03-23T06:18:10;11.80;99.90
25937;DHT22;13733;51.178;4.450;2023-03-23T06:21:01;11.80;99.90
25937;DHT22;13733;51.178;4.450;2023-03-23T06:23:45;11.70;99.90
25937;DHT22;13733;51.178;4.450;2023-03-23T06:26:14;11.80;99.90
25937;DHT22;13733;51.178;4.450;2023-03-23T06:28:46;11.80;99.90
25937;DHT22;13733;51.178;4.450;2023-03-23T06:31:13;11.80;99.90
25937;DHT22;13733;51.178;4.450;2023-03-23T06:33:40;11.80;99.90
25937;DHT22;13733;51.178;4.450;2023-03-23T06:36:24;11.90;99.90
25937;DHT22;13733;51.178;4.450;2023-03-23T06:39:21;12.00;99.90
25937;DHT22;13733;51.178;4.450;2023-03-23T06:42:11;12.10;99.90
25937;DHT22;13733;51.178;4.450;2023-03-23T06:44:41;11.50;99.90
25937;DHT22;13733;51.178;4.450;2023-03-23T06:47:07;11.40;99.90
25937;DHT22;13733;51.178;4.450;2023-03-23T06:49:36;11.30;99.90
25937;DHT22;13733;51.178;4.450;2023-03-23T06:52:18;11.20;99.90
25937;DHT22;13733;51.178;4.450;2023-03-23T06:54:44;11.30;99.90
25937;DHT22;13733;51.178;4.450;2023-03-23T06:57:11;11.30;99.90
25937;DHT22;13733;51.178;4.450;2023-03-23T06:59:37;11.30;99.90
25937;DHT22;13733;51.178;4.450;2023-03-23T07:02:04;11.20;99.90
25937;DHT22;13733;51.178;4.450;2023-03-23T07:04:31;11.20;99.90
25937;DHT22;13733;51.178;4.450;2023-03-23T07:07:09;11.40;99.90
25937;DHT22;13733;51.178;4.450;2023-03-23T07:09:45;11.30;99.90
25937;DHT22;13733;51.178;4.450;2023-03-23T07:12:11;11.30;99.90
25937;DHT22;13733;51.178;4.450;2023-03-23T07:14:43;11.20;99.90
25937;DHT22;13733;51.178;4.450;2023-03-23T07:17:09;11.10;99.90
25937;DHT22;13733;51.178;4.450;2023-03-23T07:19:40;11.10;99.90
25937;DHT22;13733;51.178;4.450;2023-03-23T07:22:09;11.00;99.90
25937;DHT22;13733;51.178;4.450;2023-03-23T07:24:35;10.90;99.90
25937;DHT22;13733;51.178;4.450;2023-03-23T07:27:22;10.80;99.90
25937;DHT22;13733;51.178;4.450;2023-03-23T07:29:51;10.60;99.90
25937;DHT22;13733;51.178;4.450;2023-03-23T07:32:24;10.70;99.90
25937;DHT22;13733;51.178;4.450;2023-03-23T07:34:50;10.60;99.90
25937;DHT22;13733;51.178;4.450;2023-03-23T07:37:41;10.50;99.90
25937;DHT22;13733;51.178;4.450;2023-03-23T07:40:08;10.50;99.90
25937;DHT22;13733;51.178;4.450;2023-03-23T07:42:45;10.60;99.90
25937;DHT22;13733;51.178;4.450;2023-03-23T07:45:22;10.50;99.90
25937;DHT22;13733;51.178;4.450;2023-03-23T07:47:48;10.60;99.90
25937;DHT22;13733;51.178;4.450;2023-03-23T07:50:14;10.60;99.90
25937;DHT22;13733;51.178;4.450;2023-03-23T07:52:42;10.70;99.90
25937;DHT22;13733;51.178;4.450;2023-03-23T07:55:10;10.60;99.90
25937;DHT22;13733;51.178;4.450;2023-03-23T07:58:00;10.70;99.90
25937;DHT22;13733;51.178;4.450;2023-03-23T08:00:26;10.80;99.90
25937;DHT22;13733;51.178;4.450;2023-03-23T08:02:56;10.70;99.90
25937;DHT22;13733;51.178;4.450;2023-03-23T08:05:44;10.80;99.90
25937;DHT22;13733;51.178;4.450;2023-03-23T08:08:12;10.90;99.90
25937;DHT22;13733;51.178;4.450;2023-03-23T08:10:58;11.00;99.90
25937;DHT22;13733;51.178;4.450;2023-03-23T08:13:36;11.10;99.90
25937;DHT22;13733;51.178;4.450;2023-03-23T08:16:40;11.10;99.90
25937;DHT22;13733;51.178;4.450;2023-03-23T08:19:06;11.00;99.90
25937;DHT22;13733;51.178;4.450;2023-03-23T08:21:50;11.10;99.90
25937;DHT22;13733;51.178;4.450;2023-03-23T08:24:18;11.10;99.90
25937;DHT22;13733;51.178;4.450;2023-03-23T08:26:44;11.30;99.90
25937;DHT22;13733;51.178;4.450;2023-03-23T08:29:19;11.50;99.90
25937;DHT22;13733;51.178;4.450;2023-03-23T08:31:58;11.50;99.90
25937;DHT22;13733;51.178;4.450;2023-03-23T08:34:52;11.50;99.90
25937;DHT22;13733;51.178;4.450;2023-03-23T08:37:40;11.60;99.90
25937;DHT22;13733;51.178;4.450;2023-03-23T08:40:19;11.90;99.90
25937;DHT22;13733;51.178;4.450;2023-03-23T08:42:56;11.90;99.90
25937;DHT22;13733;51.178;4.450;2023-03-23T08:45:40;11.90;99.90
25937;DHT22;13733;51.178;4.450;2023-03-23T08:48:22;12.00;99.90
25937;DHT22;13733;51.178;4.450;2023-03-23T08:51:07;12.10;99.90
25937;DHT22;13733;51.178;4.450;2023-03-23T08:53:54;12.10;99.90
25937;DHT22;13733;51.178;4.450;2023-03-23T08:56:40;12.20;99.90
25937;DHT22;13733;51.178;4.450;2023-03-23T08:59:06;12.40;99.90
25937;DHT22;13733;51.178;4.450;2023-03-23T09:01:54;12.40;99.90
25937;DHT22;13733;51.178;4.450;2023-03-23T09:04:25;12.30;99.90
25937;DHT22;13733;51.178;4.450;2023-03-23T09:07:18;12.40;99.90
25937;DHT22;13733;51.178;4.450;2023-03-23T09:09:44;12.30;99.90
25937;DHT22;13733;51.178;4.450;2023-03-23T09:12:10;12.20;99.90
25937;DHT22;13733;51.178;4.450;2023-03-23T09:14:37;12.40;99.90
25937;DHT22;13733;51.178;4.450;2023-03-23T09:17:04;12.50;99.90
25937;DHT22;13733;51.178;4.450;2023-03-23T09:19:32;12.40;99.90
25937;DHT22;13733;51.178;4.450;2023-03-23T09:21:59;12.40;99.90
25937;DHT22;13733;51.178;4.450;2023-03-23T09:24:25;12.30;99.90
25937;DHT22;13733;51.178;4.450;2023-03-23T09:26:51;12.30;99.90
25937;DHT22;13733;51.178;4.450;2023-03-23T09:29:17;12.40;99.90
25937;DHT22;13733;51.178;4.450;2023-03-23T09:31:44;12.70;99.90
25937;DHT22;13733;51.178;4.450;2023-03-23T09:34:12;12.80;99.90
25937;DHT22;13733;51.178;4.450;2023-03-23T09:36:38;13.00;99.90
25937;DHT22;13733;51.178;4.450;2023-03-23T09:39:08;13.00;99.90
25937;DHT22;13733;51.178;4.450;2023-03-23T09:50:18;13.40;99.90
25937;DHT22;13733;51.178;4.450;2023-03-23T09:53:05;13.40;99.90
25937;DHT22;13733;51.178;4.450;2023-03-23T09:55:34;13.50;99.90
25937;DHT22;13733;51.178;4.450;2023-03-23T10:00:58;14.10;99.90
25937;DHT22;13733;51.178;4.450;2023-03-23T10:03:31;14.20;99.90
25937;DHT22;13733;51.178;4.450;2023-03-23T10:05:57;14.70;99.90
25937;DHT22;13733;51.178;4.450;2023-03-23T10:08:29;14.70;99.90
25937;DHT22;13733;51.178;4.450;2023-03-23T10:13:59;14.90;99.90
25937;DHT22;13733;51.178;4.450;2023-03-23T10:16:30;15.00;99.90
25937;DHT22;13733;51.178;4.450;2023-03-23T10:19:27;15.00;99.90
25937;DHT22;13733;51.178;4.450;2023-03-23T10:22:02;15.10;99.90
25937;DHT22;13733;51.178;4.450;2023-03-23T10:24:57;15.00;99.90
25937;DHT22;13733;51.178;4.450;2023-03-23T10:27:35;14.80;99.90
25937;DHT22;13733;51.178;4.450;2023-03-23T10:32:57;15.00;99.90
25937;DHT22;13733;51.178;4.450;2023-03-23T10:35:32;15.40;99.90
25937;DHT22;13733;51.178;4.450;2023-03-23T10:38:06;15.40;99.90
25937;DHT22;13733;51.178;4.450;2023-03-23T10:40:38;15.30;99.90
25937;DHT22;13733;51.178;4.450;2023-03-23T10:43:05;15.00;99.90
25937;DHT22;13733;51.178;4.450;2023-03-23T10:45:31;15.10;99.90
25937;DHT22;13733;51.178;4.450;2023-03-23T10:48:21;15.40;99.90
25937;DHT22;13733;51.178;4.450;2023-03-23T10:50:52;15.20;99.90
25937;DHT22;13733;51.178;4.450;2023-03-23T10:53:32;15.10;99.90
25937;DHT22;13733;51.178;4.450;2023-03-23T10:55:59;15.00;99.90
25937;DHT22;13733;51.178;4.450;2023-03-23T10:58:30;14.80;99.90
25937;DHT22;13733;51.178;4.450;2023-03-23T11:00:58;15.10;99.90
25937;DHT22;13733;51.178;4.450;2023-03-23T11:03:39;15.10;99.90
25937;DHT22;13733;51.178;4.450;2023-03-23T11:06:07;15.10;99.90
25937;DHT22;13733;51.178;4.450;2023-03-23T11:09:09;15.60;99.90
25937;DHT22;13733;51.178;4.450;2023-03-23T11:11:48;15.60;99.90
25937;DHT22;13733;51.178;4.450;2023-03-23T11:17:04;15.90;99.90
25937;DHT22;13733;51.178;4.450;2023-03-23T11:19:36;16.10;99.90
25937;DHT22;13733;51.178;4.450;2023-03-23T11:22:18;15.80;99.90
25937;DHT22;13733;51.178;4.450;2023-03-23T11:24:47;15.80;99.90
25937;DHT22;13733;51.178;4.450;2023-03-23T11:27:17;15.90;99.90
25937;DHT22;13733;51.178;4.450;2023-03-23T11:29:54;16.00;99.90
25937;DHT22;13733;51.178;4.450;2023-03-23T11:32:26;16.00;99.90
25937;DHT22;13733;51.178;4.450;2023-03-23T11:34:57;16.10;99.90
25937;DHT22;13733;51.178;4.450;2023-03-23T11:37:40;16.80;99.90
25937;DHT22;13733;51.178;4.450;2023-03-23T11:45:31;17.80;99.90
25937;DHT22;13733;51.178;4.450;2023-03-23T11:58:15;19.40;99.90
25937;DHT22;13733;51.178;4.450;2023-03-23T12:00:51;19.10;99.90
25937;DHT22;13733;51.178;4.450;2023-03-23T12:06:15;18.70;99.90
25937;DHT22;13733;51.178;4.450;2023-03-23T12:27:16;19.80;99.90
25937;DHT22;13733;51.178;4.450;2023-03-23T12:36:00;18.10;99.90
25937;DHT22;13733;51.178;4.450;2023-03-23T12:41:32;18.00;99.90
25937;DHT22;13733;51.178;4.450;2023-03-23T12:44:06;17.70;99.90
25937;DHT22;13733;51.178;4.450;2023-03-23T12:46:39;17.60;99.90
25937;DHT22;13733;51.178;4.450;2023-03-23T12:54:23;19.90;99.90
25937;DHT22;13733;51.178;4.450;2023-03-23T13:02:29;18.20;99.90
25937;DHT22;13733;51.178;4.450;2023-03-23T13:05:07;19.10;99.90
25937;DHT22;13733;51.178;4.450;2023-03-23T13:07:47;19.50;99.90
25937;DHT22;13733;51.178;4.450;2023-03-23T13:10:26;19.10;99.90
25937;DHT22;13733;51.178;4.450;2023-03-23T13:12:53;18.50;99.90
25937;DHT22;13733;51.178;4.450;2023-03-23T13:20:41;17.70;99.90
25937;DHT22;13733;51.178;4.450;2023-03-23T13:23:27;17.30;99.90
25937;DHT22;13733;51.178;4.450;2023-03-23T13:26:07;16.90;99.90
25937;DHT22;13733;51.178;4.450;2023-03-23T13:28:58;16.90;99.90
25937;DHT22;13733;51.178;4.450;2023-03-23T13:34:14;15.70;99.90
25937;DHT22;13733;51.178;4.450;2023-03-23T13:37:01;15.00;99.90
25937;DHT22;13733;51.178;4.450;2023-03-23T13:42:51;14.30;99.90
25937;DHT22;13733;51.178;4.450;2023-03-23T13:47:43;14.30;99.90
25937;DHT22;13733;51.178;4.450;2023-03-23T14:03:05;17.10;99.90
25937;DHT22;13733;51.178;4.450;2023-03-23T14:05:50;17.10;99.90
25937;DHT22;13733;51.178;4.450;2023-03-23T14:10:57;16.30;99.90
25937;DHT22;13733;51.178;4.450;2023-03-23T14:16:01;15.70;99.90
25937;DHT22;13733;51.178;4.450;2023-03-23T14:18:38;15.10;99.90
25937;DHT22;13733;51.178;4.450;2023-03-23T14:21:05;14.30;99.90
25937;DHT22;13733;51.178;4.450;2023-03-23T14:23:33;13.70;99.90
25937;DHT22;13733;51.178;4.450;2023-03-23T14:26:02;13.50;99.90
25937;DHT22;13733;51.178;4.450;2023-03-23T14:28:38;13.50;99.90
25937;DHT22;13733;51.178;4.450;2023-03-23T14:31:05;13.30;99.90
25937;DHT22;13733;51.178;4.450;2023-03-23T14:33:38;13.40;99.90
25937;DHT22;13733;51.178;4.450;2023-03-23T14:36:07;13.40;99.90
25937;DHT22;13733;51.178;4.450;2023-03-23T14:38:33;14.40;99.90
25937;DHT22;13733;51.178;4.450;2023-03-23T14:41:04;16.00;99.90
25937;DHT22;13733;51.178;4.450;2023-03-23T14:43:31;17.90;99.90
25937;DHT22;13733;51.178;4.450;2023-03-23T14:46:01;18.20;99.90
25937;DHT22;13733;51.178;4.450;2023-03-23T14:48:27;17.90;99.90
25937;DHT22;13733;51.178;4.450;2023-03-23T14:50:58;17.10;99.90
25937;DHT22;13733;51.178;4.450;2023-03-23T14:53:31;16.40;99.90
25937;DHT22;13733;51.178;4.450;2023-03-23T14:56:00;16.30;99.90
25937;DHT22;13733;51.178;4.450;2023-03-23T14:58:28;16.40;99.90
25937;DHT22;13733;51.178;4.450;2023-03-23T15:00:55;16.20;99.90
25937;DHT22;13733;51.178;4.450;2023-03-23T15:03:24;15.80;99.90
25937;DHT22;13733;51.178;4.450;2023-03-23T15:05:54;15.80;99.90
25937;DHT22;13733;51.178;4.450;2023-03-23T15:08:29;16.00;99.90
25937;DHT22;13733;51.178;4.450;2023-03-23T15:13:56;15.80;99.90
25937;DHT22;13733;51.178;4.450;2023-03-23T15:16:33;15.80;99.90
25937;DHT22;13733;51.178;4.450;2023-03-23T15:19:05;15.60;99.90
25937;DHT22;13733;51.178;4.450;2023-03-23T15:21:35;15.50;99.90
25937;DHT22;13733;51.178;4.450;2023-03-23T15:24:03;15.30;99.90
25937;DHT22;13733;51.178;4.450;2023-03-23T15:26:44;15.20;99.90
25937;DHT22;13733;51.178;4.450;2023-03-23T15:29:15;15.70;99.90
25937;DHT22;13733;51.178;4.450;2023-03-23T15:31:55;16.00;99.90
25937;DHT22;13733;51.178;4.450;2023-03-23T15:34:30;16.60;99.90
25937;DHT22;13733;51.178;4.450;2023-03-23T15:36:59;17.80;99.90
25937;DHT22;13733;51.178;4.450;2023-03-23T15:39:26;19.10;99.90
25937;DHT22;13733;51.178;4.450;2023-03-23T15:41:53;19.30;99.90
25937;DHT22;13733;51.178;4.450;2023-03-23T15:44:26;18.50;99.90
25937;DHT22;13733;51.178;4.450;2023-03-23T15:47:10;18.30;99.90
25937;DHT22;13733;51.178;4.450;2023-03-23T15:49:37;17.80;99.90
25937;DHT22;13733;51.178;4.450;2023-03-23T15:52:03;17.90;99.90
25937;DHT22;13733;51.178;4.450;2023-03-23T15:54:31;18.30;99.90
25937;DHT22;13733;51.178;4.450;2023-03-23T15:56:57;18.70;99.90
25937;DHT22;13733;51.178;4.450;2023-03-23T15:59:23;18.90;99.90
25937;DHT22;13733;51.178;4.450;2023-03-23T16:01:49;18.90;99.90
25937;DHT22;13733;51.178;4.450;2023-03-23T16:04:17;19.10;99.90
25937;DHT22;13733;51.178;4.450;2023-03-23T16:06:44;19.00;99.90
25937;DHT22;13733;51.178;4.450;2023-03-23T16:09:19;18.80;99.90
25937;DHT22;13733;51.178;4.450;2023-03-23T16:11:45;17.80;99.90
25937;DHT22;13733;51.178;4.450;2023-03-23T16:14:11;17.70;99.90
25937;DHT22;13733;51.178;4.450;2023-03-23T16:16:48;17.50;99.90
25937;DHT22;13733;51.178;4.450;2023-03-23T16:19:15;17.20;99.90
25937;DHT22;13733;51.178;4.450;2023-03-23T16:21:41;17.10;99.90
25937;DHT22;13733;51.178;4.450;2023-03-23T16:24:08;17.10;99.90
25937;DHT22;13733;51.178;4.450;2023-03-23T16:26:34;16.40;99.90
25937;DHT22;13733;51.178;4.450;2023-03-23T16:29:00;16.00;99.90
25937;DHT22;13733;51.178;4.450;2023-03-23T16:31:27;15.60;99.90
25937;DHT22;13733;51.178;4.450;2023-03-23T16:33:54;15.50;99.90
25937;DHT22;13733;51.178;4.450;2023-03-23T16:36:20;15.50;99.90
25937;DHT22;13733;51.178;4.450;2023-03-23T16:38:45;15.40;99.90
25937;DHT22;13733;51.178;4.450;2023-03-23T16:41:11;15.40;99.90
25937;DHT22;13733;51.178;4.450;2023-03-23T16:43:37;15.40;99.90
25937;DHT22;13733;51.178;4.450;2023-03-23T16:46:03;15.30;99.90
25937;DHT22;13733;51.178;4.450;2023-03-23T16:48:29;15.40;99.90
25937;DHT22;13733;51.178;4.450;2023-03-23T16:50:54;15.60;99.90
25937;DHT22;13733;51.178;4.450;2023-03-23T16:53:21;15.50;99.90
25937;DHT22;13733;51.178;4.450;2023-03-23T16:55:49;15.50;99.90
25937;DHT22;13733;51.178;4.450;2023-03-23T16:58:15;15.40;99.90
25937;DHT22;13733;51.178;4.450;2023-03-23T17:00:42;15.30;99.90
25937;DHT22;13733;51.178;4.450;2023-03-23T17:03:11;15.20;99.90
25937;DHT22;13733;51.178;4.450;2023-03-23T17:05:37;15.20;99.90
25937;DHT22;13733;51.178;4.450;2023-03-23T17:08:04;15.20;99.90
25937;DHT22;13733;51.178;4.450;2023-03-23T17:10:30;15.30;99.90
25937;DHT22;13733;51.178;4.450;2023-03-23T17:12:56;15.30;99.90
25937;DHT22;13733;51.178;4.450;2023-03-23T17:15:22;15.30;99.90
25937;DHT22;13733;51.178;4.450;2023-03-23T17:17:51;15.40;99.90
25937;DHT22;13733;51.178;4.450;2023-03-23T17:20:19;15.40;99.90
25937;DHT22;13733;51.178;4.450;2023-03-23T17:22:46;15.40;99.90
25937;DHT22;13733;51.178;4.450;2023-03-23T17:25:12;15.50;99.90
25937;DHT22;13733;51.178;4.450;2023-03-23T17:27:38;15.50;99.90
25937;DHT22;13733;51.178;4.450;2023-03-23T17:30:06;15.40;99.90
25937;DHT22;13733;51.178;4.450;2023-03-23T17:32:32;15.40;99.90
25937;DHT22;13733;51.178;4.450;2023-03-23T17:34:58;15.30;99.90
25937;DHT22;13733;51.178;4.450;2023-03-23T17:37:24;15.40;99.90
25937;DHT22;13733;51.178;4.450;2023-03-23T17:39:50;15.60;99.90
25937;DHT22;13733;51.178;4.450;2023-03-23T17:42:16;15.60;99.90
25937;DHT22;13733;51.178;4.450;2023-03-23T17:44:42;15.40;99.90
25937;DHT22;13733;51.178;4.450;2023-03-23T17:47:09;15.30;99.90
25937;DHT22;13733;51.178;4.450;2023-03-23T17:49:34;15.10;99.90
25937;DHT22;13733;51.178;4.450;2023-03-23T17:52:00;15.10;99.90
25937;DHT22;13733;51.178;4.450;2023-03-23T17:54:26;15.10;99.90
25937;DHT22;13733;51.178;4.450;2023-03-23T17:56:54;15.10;99.90
25937;DHT22;13733;51.178;4.450;2023-03-23T17:59:22;15.00;99.90
25937;DHT22;13733;51.178;4.450;2023-03-23T18:01:49;15.00;99.90
25937;DHT22;13733;51.178;4.450;2023-03-23T18:04:17;15.00;99.90
25937;DHT22;13733;51.178;4.450;2023-03-23T18:06:44;15.00;99.90
25937;DHT22;13733;51.178;4.450;2023-03-23T18:09:11;15.00;99.90